Time;durP1;ratioP1;P1;durP2;ratioP2;P2;SDS_P1;SDS_P2;PMS_P1;PMS_P2;Temp;Humidity;BMP_temperature;BMP_pressure;BME280_temperature;BME280_humidity;BME280_pressure;Samples;Min_cycle;Max_cycle;Signal;HPM_P1;HPM_P2
2022/05/22 00:01:29;;;;;;;7.72;5.40;;;;;;;21.85;100.00;100418.72;4869526;29;20029;-74
2022/05/22 00:04:15;;;;;;;10.07;5.45;;;;;;;21.69;100.00;100422.47;4882095;29;20025;-74
2022/05/22 00:07:01;;;;;;;7.63;4.88;;;;;;;21.65;100.00;100432.50;4882805;29;20036;-75
2022/05/22 00:09:47;;;;;;;6.70;4.93;;;;;;;22.16;100.00;100423.66;4868763;29;20029;-73
2022/05/22 00:12:33;;;;;;;7.85;5.78;;;;;;;22.11;100.00;100435.59;4868999;29;20116;-74
2022/05/22 00:15:19;;;;;;;10.93;5.78;;;;;;;22.14;100.00;100441.56;4882017;29;20024;-74
2022/05/22 00:18:05;;;;;;;9.35;5.90;;;;;;;22.32;100.00;100437.63;4881123;29;20029;-74
2022/05/22 00:20:51;;;;;;;9.10;5.70;;;;;;;22.26;100.00;100443.38;4881228;29;20037;-73
2022/05/22 00:23:37;;;;;;;8.32;5.50;;;;;;;22.04;100.00;100439.66;4881485;29;20404;-74
2022/05/22 00:26:23;;;;;;;8.80;5.50;;;;;;;22.16;100.00;100434.31;4882103;29;20029;-75
2022/05/22 00:29:09;;;;;;;8.02;5.28;;;;;;;22.05;100.00;100441.34;4881904;29;20044;-74
2022/05/22 00:31:55;;;;;;;11.45;5.43;;;;;;;21.97;100.00;100433.00;4881845;29;20040;-74
2022/05/22 00:34:40;;;;;;;6.20;5.05;;;;;;;22.22;100.00;100430.38;4881142;29;20029;-74
2022/05/22 00:37:26;;;;;;;9.05;5.07;;;;;;;21.96;100.00;100432.19;4882052;29;20033;-75
2022/05/22 00:40:12;;;;;;;8.90;5.20;;;;;;;21.63;100.00;100437.09;4868523;29;20029;-75
2022/05/22 00:42:58;;;;;;;7.65;5.28;;;;;;;21.51;100.00;100432.59;4881322;29;20463;-74
2022/05/22 00:45:44;;;;;;;8.30;5.20;;;;;;;21.54;100.00;100437.69;4881146;29;20047;-74
2022/05/22 00:48:30;;;;;;;6.60;4.93;;;;;;;21.46;100.00;100433.84;4881838;29;20474;-74
2022/05/22 00:51:24;;;;;;;9.82;5.30;;;;;;;21.84;100.00;100442.81;4881147;29;20351;-74
2022/05/22 00:54:27;;;;;;;8.20;5.32;;;;;;;21.96;100.00;100440.19;4868238;29;20108;-74
2022/05/22 00:57:23;;;;;;;6.47;5.22;;;;;;;21.88;100.00;100445.19;4881196;29;20108;-74
2022/05/22 01:00:13;;;;;;;8.32;5.20;;;;;;;21.88;100.00;100437.19;4881573;29;20458;-74
2022/05/22 01:06:17;;;;;;;6.20;5.45;;;;;;;21.88;100.00;100447.84;4881519;29;20112;-74
2022/05/22 01:09:02;;;;;;;6.32;4.95;;;;;;;21.56;100.00;100450.94;4881192;29;20510;-74
2022/05/22 01:11:52;;;;;;;7.32;5.10;;;;;;;21.60;100.00;100449.78;4867696;29;20041;-74
2022/05/22 01:14:39;;;;;;;8.65;4.80;;;;;;;21.77;100.00;100457.53;4867381;29;20081;-73
2022/05/22 01:17:25;;;;;;;7.32;5.07;;;;;;;21.47;100.00;100456.88;4880031;29;20037;-73
2022/05/22 01:20:12;;;;;;;6.70;4.78;;;;;;;21.75;100.00;100454.97;4881123;29;20088;-74
2022/05/22 01:22:58;;;;;;;8.30;4.28;;;;;;;21.41;100.00;100465.25;4880544;29;20066;-74
2022/05/22 01:25:44;;;;;;;8.68;4.43;;;;;;;21.62;100.00;100459.38;4881328;29;20040;-74
2022/05/22 01:28:30;;;;;;;8.10;4.82;;;;;;;21.60;100.00;100461.31;4880895;29;20469;-73
2022/05/22 01:31:17;;;;;;;6.80;4.60;;;;;;;21.74;100.00;100460.41;4868100;29;20037;-74
2022/05/22 01:34:03;;;;;;;10.32;4.97;;;;;;;21.28;100.00;100462.56;4880921;29;20391;-74
2022/05/22 01:36:48;;;;;;;6.63;4.35;;;;;;;21.24;100.00;100458.41;4880414;29;20065;-74
2022/05/22 01:39:34;;;;;;;6.05;4.93;;;;;;;21.43;100.00;100458.91;4880382;29;20033;-74
2022/05/22 01:42:20;;;;;;;8.90;4.72;;;;;;;21.38;100.00;100461.00;4867975;29;20131;-75
2022/05/22 01:45:08;;;;;;;9.63;4.63;;;;;;;21.32;100.00;100460.53;4891069;29;20031;-74
2022/05/22 01:47:54;;;;;;;5.55;4.63;;;;;;;20.97;100.00;100468.16;4897968;29;20051;-74
2022/05/22 01:50:42;;;;;;;5.88;4.40;;;;;;;20.92;100.00;100464.06;4887226;29;20039;-75
2022/05/22 01:53:28;;;;;;;7.90;4.72;;;;;;;21.11;100.00;100468.13;4887125;29;20029;-75
2022/05/22 01:56:14;;;;;;;7.65;4.85;;;;;;;20.93;100.00;100468.47;4886580;29;20032;-74
2022/05/22 01:59:00;;;;;;;6.63;4.90;;;;;;;21.03;100.00;100467.78;4886508;29;20592;-74
2022/05/22 02:01:45;;;;;;;8.20;5.10;;;;;;;20.78;100.00;100467.56;4873395;29;20352;-75
2022/05/22 02:04:32;;;;;;;11.05;4.88;;;;;;;21.13;100.00;100466.22;4891188;29;20025;-74
2022/05/22 02:10:24;;;;;;;9.20;4.88;;;;;;;20.79;100.00;100487.06;4886770;29;20502;-74
2022/05/22 02:13:11;;;;;;;9.95;4.90;;;;;;;21.01;100.00;100483.00;4887124;29;20470;-75
2022/05/22 02:15:57;;;;;;;7.65;4.85;;;;;;;21.23;100.00;100490.47;4887034;29;20115;-74
2022/05/22 02:18:43;;;;;;;7.30;4.97;;;;;;;21.24;100.00;100492.16;4886110;29;20053;-75
2022/05/22 02:21:29;;;;;;;7.38;4.65;;;;;;;20.92;100.00;100496.91;4886067;29;20525;-75
2022/05/22 02:24:16;;;;;;;7.13;4.97;;;;;;;21.11;100.00;100499.25;4887027;29;20028;-75
2022/05/22 02:27:08;;;;;;;8.48;4.90;;;;;;;21.32;100.00;100501.38;4886547;29;20144;-74
2022/05/22 02:29:54;;;;;;;7.43;5.20;;;;;;;21.07;100.00;100495.94;4873508;29;20029;-75
2022/05/22 02:32:40;;;;;;;7.95;5.38;;;;;;;20.95;100.00;100501.19;4886091;29;20052;-74
2022/05/22 02:35:25;;;;;;;7.40;4.90;;;;;;;20.95;100.00;100517.16;4886164;29;20036;-74
2022/05/22 02:38:11;;;;;;;8.98;5.53;;;;;;;20.78;100.00;100523.50;4886986;29;20048;-73
2022/05/22 02:40:58;;;;;;;8.13;5.13;;;;;;;21.14;100.00;100539.84;4885997;29;20021;-74
2022/05/22 02:43:44;;;;;;;7.30;5.13;;;;;;;21.28;100.00;100541.66;4885591;29;20033;-75
2022/05/22 02:46:29;;;;;;;10.05;5.30;;;;;;;21.47;100.00;100555.50;4872722;29;20104;-74
2022/05/22 02:49:15;;;;;;;7.85;5.43;;;;;;;21.30;100.00;100553.09;4886712;29;20025;-74
2022/05/22 02:52:01;;;;;;;7.82;4.82;;;;;;;20.91;100.00;100544.91;4886425;29;20036;-74
2022/05/22 02:54:47;;;;;;;9.85;5.60;;;;;;;20.95;100.00;100544.66;4885307;29;20020;-73
2022/05/22 02:57:34;;;;;;;7.88;5.60;;;;;;;20.80;100.00;100548.22;4883387;29;20039;-74
2022/05/22 03:00:23;;;;;;;9.10;5.20;;;;;;;20.91;100.00;100545.81;4882986;29;20040;-73
2022/05/22 03:03:09;;;;;;;8.85;5.70;;;;;;;20.87;100.00;100548.72;4882332;29;20096;-73
2022/05/22 03:08:59;;;;;;;8.13;5.28;;;;;;;21.01;100.00;100552.25;4883308;29;20108;-74
2022/05/22 03:11:45;;;;;;;7.68;5.10;;;;;;;21.08;100.00;100558.91;4883727;29;20029;-74
2022/05/22 03:14:31;;;;;;;9.05;5.18;;;;;;;20.60;100.00;100563.72;4882827;29;20025;-74
2022/05/22 03:17:17;;;;;;;8.57;6.18;;;;;;;20.97;100.00;100569.38;4883054;29;20025;-74
2022/05/22 03:20:04;;;;;;;7.90;5.72;;;;;;;21.19;100.00;100577.75;4882406;29;20115;-74
2022/05/22 03:22:50;;;;;;;8.68;5.65;;;;;;;21.37;100.00;100581.91;4881635;29;20120;-73
2022/05/22 03:25:36;;;;;;;9.77;5.80;;;;;;;21.19;100.00;100575.09;4883288;29;20139;-74
2022/05/22 03:28:23;;;;;;;10.02;5.53;;;;;;;21.20;100.00;100582.13;4882300;29;20021;-74
2022/05/22 03:31:09;;;;;;;8.07;5.50;;;;;;;21.08;100.00;100579.34;4883102;29;20092;-74
2022/05/22 03:33:55;;;;;;;10.63;5.95;;;;;;;21.18;100.00;100589.34;4881847;29;20033;-73
2022/05/22 03:36:41;;;;;;;8.05;5.80;;;;;;;20.89;100.00;100584.94;4882323;29;20033;-74
2022/05/22 03:39:27;;;;;;;8.50;5.53;;;;;;;20.64;100.00;100578.53;4882071;29;20060;-75
2022/05/22 03:42:13;;;;;;;6.70;5.40;;;;;;;20.43;100.00;100567.41;4870150;29;20036;-74
2022/05/22 03:44:59;;;;;;;9.07;5.78;;;;;;;20.97;100.00;100577.38;4869235;29;20094;-74
2022/05/22 03:47:45;;;;;;;11.90;5.53;;;;;;;21.07;100.00;100581.19;4869736;29;20043;-73
2022/05/22 03:50:30;;;;;;;7.22;5.40;;;;;;;21.09;100.00;100579.25;4881931;29;20119;-74
2022/05/22 03:53:16;;;;;;;7.03;5.32;;;;;;;20.95;100.00;100583.75;4882144;29;20516;-75
2022/05/22 03:56:15;;;;;;;8.95;5.55;;;;;;;21.00;100.00;100584.31;4869127;29;20033;-74
2022/05/22 03:59:02;;;;;;;8.38;5.28;;;;;;;21.05;100.00;100591.06;4881986;29;20113;-74
2022/05/22 04:01:48;;;;;;;8.65;5.00;;;;;;;20.88;100.00;100591.22;4869207;29;20100;-75
2022/05/22 04:04:34;;;;;;;7.32;5.05;;;;;;;21.09;100.00;100589.94;4881635;29;20458;-75
2022/05/22 04:07:20;;;;;;;8.82;5.82;;;;;;;21.02;100.00;100596.56;4868434;29;20044;-75
2022/05/22 04:10:08;;;;;;;7.18;5.53;;;;;;;20.70;100.00;100591.50;4881558;29;20053;-74
2022/05/22 04:12:53;;;;;;;7.40;5.43;;;;;;;21.03;100.00;100586.78;4882135;29;20075;-75
2022/05/22 04:15:39;;;;;;;11.43;5.50;;;;;;;21.02;100.00;100590.41;4881417;29;20033;-75
2022/05/22 04:18:25;;;;;;;7.28;5.43;;;;;;;21.28;100.00;100579.81;4882163;29;20379;-74
2022/05/22 04:21:11;;;;;;;8.07;5.80;;;;;;;20.77;100.00;100574.22;4868351;29;20028;-74
2022/05/22 04:27:05;;;;;;;7.45;5.45;;;;;;;20.94;100.00;100571.38;4882016;29;20380;-74
2022/05/22 04:29:51;;;;;;;8.90;5.32;;;;;;;20.93;100.00;100565.19;4881727;29;20363;-74
2022/05/22 04:32:36;;;;;;;6.55;5.30;;;;;;;21.01;100.00;100567.41;4882205;29;20033;-74
2022/05/22 04:35:23;;;;;;;7.80;5.68;;;;;;;20.44;100.00;100569.13;4882267;29;20040;-74
2022/05/22 04:38:09;;;;;;;9.63;5.63;;;;;;;20.89;100.00;100571.63;4881823;29;20033;-74
2022/05/22 04:41:02;;;;;;;8.30;6.13;;;;;;;21.20;100.00;100578.59;4881603;29;20033;-74
2022/05/22 04:43:48;;;;;;;10.82;6.60;;;;;;;21.47;100.00;100584.84;4881623;29;20029;-74
2022/05/22 04:46:34;;;;;;;10.02;6.28;;;;;;;21.66;100.00;100580.03;4867704;29;20029;-75
2022/05/22 04:49:19;;;;;;;9.80;5.80;;;;;;;21.45;100.00;100587.59;4868126;29;20235;-75
2022/05/22 04:52:05;;;;;;;7.93;5.53;;;;;;;21.47;100.00;100591.03;4881108;29;20028;-76
2022/05/22 04:54:52;;;;;;;6.15;5.40;;;;;;;20.80;100.00;100579.31;4881518;29;20040;-74
2022/05/22 04:57:38;;;;;;;8.13;5.53;;;;;;;21.21;100.00;100590.94;4880866;29;20458;-74
2022/05/22 05:00:24;;;;;;;7.43;5.25;;;;;;;21.42;100.00;100595.78;4881730;29;20064;-75
2022/05/22 05:03:09;;;;;;;6.50;4.88;;;;;;;21.37;100.00;100592.56;4880317;29;20522;-74
2022/05/22 05:05:57;;;;;;;8.40;5.43;;;;;;;21.32;100.00;100589.34;4881685;29;20051;-74
2022/05/22 05:08:43;;;;;;;7.32;5.22;;;;;;;21.25;100.00;100581.81;4881289;29;20033;-74
2022/05/22 05:11:29;;;;;;;7.15;4.90;;;;;;;21.30;100.00;100585.06;4881282;29;20032;-75
2022/05/22 05:14:15;;;;;;;12.25;5.20;;;;;;;21.36;100.00;100584.66;4880533;29;20044;-75
2022/05/22 05:17:00;;;;;;;9.02;4.50;;;;;;;21.57;100.00;100586.81;4880486;29;20033;-74
2022/05/22 05:19:46;;;;;;;11.52;4.70;;;;;;;21.95;100.00;100589.69;4879118;29;20418;-74
2022/05/22 05:22:32;;;;;;;8.57;4.63;;;;;;;22.19;100.00;100590.72;4880436;29;20032;-74
2022/05/22 05:25:19;;;;;;;7.88;4.18;;;;;;;22.36;100.00;100582.44;4880781;29;20033;-74
2022/05/22 05:28:04;;;;;;;11.77;2.70;;;;;;;22.16;96.77;100589.13;4867378;29;20028;-75
2022/05/22 05:30:50;;;;;;;7.38;3.10;;;;;;;22.39;92.71;100592.91;4867700;29;20041;-74
2022/05/22 05:33:37;;;;;;;9.43;2.92;;;;;;;22.63;94.27;100589.41;4880650;29;20390;-74
2022/05/22 05:36:23;;;;;;;8.60;3.53;;;;;;;23.09;92.96;100595.09;4881282;29;20029;-73
2022/05/22 05:39:09;;;;;;;7.03;3.20;;;;;;;22.98;90.12;100600.31;4880847;29;20041;-75
2022/05/22 05:41:55;;;;;;;8.43;2.55;;;;;;;22.94;86.53;100598.84;4868539;29;20489;-73
2022/05/22 05:44:41;;;;;;;8.40;2.35;;;;;;;22.64;86.06;100591.16;4868140;29;20099;-75
2022/05/22 05:47:27;;;;;;;9.10;2.47;;;;;;;22.91;86.14;100589.22;4883742;29;20043;-74
2022/05/22 05:50:15;;;;;;;4.50;2.80;;;;;;;22.81;83.09;100579.28;4884416;29;20065;-75
2022/05/22 05:53:02;;;;;;;8.88;2.60;;;;;;;22.71;83.60;100591.59;4882275;29;20179;-76
2022/05/22 05:55:48;;;;;;;8.40;2.42;;;;;;;23.25;81.37;100596.59;4881630;29;20029;-74
2022/05/22 05:58:33;;;;;;;9.43;2.47;;;;;;;23.20;80.69;100597.91;4881247;29;20022;-75
2022/05/22 06:01:21;;;;;;;12.07;2.80;;;;;;;23.51;79.22;100596.56;4881552;29;20029;-75
2022/05/22 06:04:06;;;;;;;10.27;2.97;;;;;;;23.79;75.69;100585.53;4880712;29;20025;-74
2022/05/22 06:06:52;;;;;;;9.15;2.88;;;;;;;24.06;73.71;100588.88;4880856;29;20061;-74
2022/05/22 06:09:38;;;;;;;11.05;2.60;;;;;;;24.18;74.54;100574.56;4880893;29;20039;-74
2022/05/22 06:12:24;;;;;;;12.25;2.97;;;;;;;23.71;76.31;100566.53;4866702;29;20411;-75
2022/05/22 06:15:10;;;;;;;5.68;2.50;;;;;;;23.91;76.43;100572.13;4880022;29;20041;-74
2022/05/22 06:17:56;;;;;;;10.18;2.70;;;;;;;23.85;79.35;100577.03;4879684;29;20029;-74
2022/05/22 06:20:42;;;;;;;9.38;2.60;;;;;;;23.68;81.55;100580.13;4879805;29;20096;-74
2022/05/22 06:23:28;;;;;;;9.90;2.70;;;;;;;22.91;87.67;100578.53;4867083;29;20363;-74
2022/05/22 06:26:17;;;;;;;7.72;2.78;;;;;;;23.43;86.80;100586.41;4880988;29;20029;-75
2022/05/22 06:29:03;;;;;;;12.90;2.78;;;;;;;23.41;81.31;100588.34;4880202;29;20033;-74
2022/05/22 06:31:50;;;;;;;12.45;2.67;;;;;;;23.90;77.08;100583.75;4884689;29;20370;-74
2022/05/22 06:34:38;;;;;;;7.63;2.92;;;;;;;23.68;80.04;100569.41;4882613;29;20381;-74
2022/05/22 06:37:24;;;;;;;8.82;2.67;;;;;;;23.62;80.15;100570.72;4883886;29;20025;-74
2022/05/22 06:40:10;;;;;;;13.25;3.05;;;;;;;23.94;78.44;100568.38;4883385;29;20081;-74
2022/05/22 06:42:59;;;;;;;13.13;2.97;;;;;;;23.62;79.00;100553.84;4883659;29;20386;-74
2022/05/22 06:45:48;;;;;;;8.52;2.63;;;;;;;24.10;79.28;100560.91;4883162;29;20033;-74
2022/05/22 06:48:34;;;;;;;14.90;3.05;;;;;;;24.47;77.29;100563.31;4883302;29;20085;-76
2022/05/22 06:51:20;;;;;;;8.05;2.50;;;;;;;24.17;79.38;100572.84;4870095;29;20047;-75
2022/05/22 06:54:05;;;;;;;9.18;2.60;;;;;;;24.63;75.48;100568.41;4883899;29;20100;-76
2022/05/22 06:56:51;;;;;;;18.15;2.60;;;;;;;24.17;75.85;100570.16;4883616;29;20029;-75
2022/05/22 06:59:37;;;;;;;5.10;2.40;;;;;;;24.23;76.35;100565.19;4884094;29;20025;-75
2022/05/22 07:02:27;;;;;;;8.80;2.88;;;;;;;24.51;74.88;100563.97;4884217;29;20365;-74
2022/05/22 07:05:13;;;;;;;7.38;2.80;;;;;;;24.74;74.36;100558.53;4870237;29;20033;-74
2022/05/22 07:07:59;;;;;;;8.50;2.90;;;;;;;24.69;77.46;100555.38;4873106;29;20064;-75
2022/05/22 07:13:49;;;;;;;9.50;3.17;;;;;;;24.82;72.96;100555.25;4883597;29;20103;-75
2022/05/22 07:16:36;;;;;;;11.07;3.22;;;;;;;25.26;72.48;100549.88;4882006;29;20060;-75
2022/05/22 07:19:22;;;;;;;9.25;2.70;;;;;;;24.89;75.94;100545.75;4883353;29;20056;-75
2022/05/22 07:22:08;;;;;;;16.77;7.72;;;;;;;24.99;77.95;100544.91;4882942;29;20045;-75
2022/05/22 07:24:54;;;;;;;8.07;3.40;;;;;;;25.34;71.89;100540.28;4882185;29;20531;-75
2022/05/22 07:27:41;;;;;;;13.00;3.30;;;;;;;25.48;73.04;100542.69;4882356;29;20117;-75
2022/05/22 07:30:27;;;;;;;9.80;3.25;;;;;;;26.18;68.60;100545.78;4882796;29;20040;-74
2022/05/22 07:33:13;;;;;;;12.45;3.10;;;;;;;26.22;67.95;100542.72;4881857;29;20025;-75
2022/05/22 07:35:59;;;;;;;10.27;3.25;;;;;;;26.04;67.69;100530.00;4882621;29;20029;-75
2022/05/22 07:38:45;;;;;;;11.40;2.92;;;;;;;25.70;69.05;100523.88;4882604;29;20472;-76
2022/05/22 07:41:31;;;;;;;9.02;3.03;;;;;;;25.76;69.71;100522.50;4880785;29;20039;-74
2022/05/22 07:44:17;;;;;;;12.25;3.35;;;;;;;25.33;71.78;100516.28;4883021;29;20028;-74
2022/05/22 07:47:06;;;;;;;13.48;3.15;;;;;;;25.83;71.21;100502.19;4882378;29;20362;-75
2022/05/22 07:52:56;;;;;;;7.47;3.10;;;;;;;26.39;65.67;100492.91;4882246;29;20025;-75
2022/05/22 07:55:42;;;;;;;14.10;3.58;;;;;;;26.11;66.86;100488.19;4881707;29;20037;-74
2022/05/22 07:58:29;;;;;;;8.02;3.30;;;;;;;26.57;66.63;100485.94;4881602;29;20461;-74
2022/05/22 08:01:15;;;;;;;9.63;4.00;;;;;;;26.24;69.39;100478.13;4882450;29;20502;-75
2022/05/22 08:04:01;;;;;;;7.05;4.07;;;;;;;26.84;65.59;100475.50;4881229;29;20043;-75
2022/05/22 08:06:46;;;;;;;8.88;6.50;;;;;;;27.00;64.55;100473.13;4882317;29;20116;-75
2022/05/22 08:09:32;;;;;;;7.10;3.58;;;;;;;27.10;63.41;100472.19;4882252;29;20522;-75
2022/05/22 08:12:18;;;;;;;9.15;3.60;;;;;;;27.17;63.13;100470.63;4881637;29;20116;-73
2022/05/22 08:15:05;;;;;;;8.50;3.05;;;;;;;27.65;61.53;100461.81;4882105;29;20029;-75
2022/05/22 08:17:51;;;;;;;8.57;3.30;;;;;;;27.05;62.95;100457.44;4868477;29;20105;-74
2022/05/22 08:20:39;;;;;;;8.13;3.25;;;;;;;27.60;61.13;100459.53;4868125;29;20121;-75
2022/05/22 08:23:25;;;;;;;3.60;3.08;;;;;;;28.04;59.31;100453.59;4882000;29;20033;-75
2022/05/22 08:26:10;;;;;;;11.32;3.20;;;;;;;27.17;58.85;100445.59;4882038;29;20037;-76
2022/05/22 08:28:56;;;;;;;8.05;3.25;;;;;;;27.15;57.29;100444.88;4881661;29;20021;-74
2022/05/22 08:31:42;;;;;;;7.20;3.47;;;;;;;28.04;55.43;100439.31;4881815;29;20036;-75
2022/05/22 08:34:28;;;;;;;11.02;2.90;;;;;;;27.40;52.86;100453.31;4880652;29;20048;-75
2022/05/22 08:37:14;;;;;;;7.78;3.03;;;;;;;28.53;51.97;100439.06;4881021;29;20029;-75
2022/05/22 08:40:00;;;;;;;7.35;3.00;;;;;;;28.76;50.18;100435.00;4881125;29;20131;-75
2022/05/22 08:42:51;;;;;;;8.93;3.80;;;;;;;28.34;51.53;100431.88;4868515;29;20128;-75
2022/05/22 08:45:50;;;;;;;7.78;2.78;;;;;;;28.99;49.74;100431.75;4868068;29;20110;-75
2022/05/22 08:48:42;;;;;;;8.73;3.17;;;;;;;27.86;50.52;100424.84;4882549;29;20060;-75
2022/05/22 08:51:37;;;;;;;8.75;3.30;;;;;;;27.95;52.66;100416.78;4881330;29;20067;-76
2022/05/22 08:54:45;;;;;;;8.48;3.03;;;;;;;28.24;51.84;100417.56;4881209;29;20112;-75
2022/05/22 09:01:12;;;;;;;5.95;2.63;;;;;;;28.05;52.68;100396.06;4881964;29;20037;-75
2022/05/22 09:04:55;;;;;;;11.60;3.33;;;;;;;28.96;50.56;100399.66;4880324;29;20109;-75
2022/05/22 09:08:05;;;;;;;8.10;2.85;;;;;;;29.05;49.04;100390.69;4812998;29;20123;-75
2022/05/22 09:11:13;;;;;;;10.80;3.38;;;;;;;28.68;49.91;100389.06;4868540;29;20025;-75
2022/05/22 09:14:16;;;;;;;9.02;3.50;;;;;;;29.01;49.90;100386.59;4881232;29;20047;-75
2022/05/22 09:17:14;;;;;;;8.70;3.50;;;;;;;28.23;51.19;100377.28;4867386;29;20037;-75
2022/05/22 09:20:17;;;;;;;12.77;8.93;;;;;;;28.57;50.36;100386.56;4868576;29;20045;-76
2022/05/22 09:23:25;;;;;;;6.88;3.47;;;;;;;28.74;48.22;100375.81;4880508;29;20177;-75
2022/05/22 09:26:26;;;;;;;7.70;3.15;;;;;;;28.75;48.34;100369.41;4881381;29;20108;-76
2022/05/22 09:29:37;;;;;;;7.15;3.30;;;;;;;28.72;48.79;100366.19;4880590;29;20021;-75
2022/05/22 09:32:48;;;;;;;10.70;2.92;;;;;;;28.95;47.84;100373.69;4881555;29;20044;-74
2022/05/22 09:35:46;;;;;;;7.13;2.83;;;;;;;28.56;46.38;100368.69;4867764;29;20057;-75
2022/05/22 09:39:01;;;;;;;9.73;2.55;;;;;;;28.50;48.24;100363.88;4880641;29;20367;-76
2022/05/22 09:42:25;;;;;;;4.35;2.42;;;;;;;29.01;47.88;100348.00;4868299;29;20120;-75
2022/05/22 09:45:13;;;;;;;8.45;2.80;;;;;;;28.89;46.37;100347.31;4880332;29;20025;-75
2022/05/22 09:48:15;;;;;;;7.45;2.75;;;;;;;28.77;46.66;100342.31;4881119;29;20043;-74
2022/05/22 09:51:06;;;;;;;5.00;2.90;;;;;;;28.96;46.42;100332.22;4867258;29;20107;-74
2022/05/22 09:54:08;;;;;;;5.80;2.88;;;;;;;28.51;47.16;100323.28;4881158;29;20033;-74
2022/05/22 09:57:00;;;;;;;17.35;5.43;;;;;;;28.73;46.78;100322.03;4881120;29;20474;-74
2022/05/22 10:00:05;;;;;;;5.78;3.00;;;;;;;28.74;47.66;100321.88;4867919;29;20131;-78
2022/05/22 10:03:31;;;;;;;3.83;2.53;;;;;;;28.42;44.99;100310.72;4880117;29;20037;-75
2022/05/22 10:06:50;;;;;;;5.82;2.60;;;;;;;28.08;45.77;100300.63;4865194;29;20036;-75
2022/05/22 10:09:56;;;;;;;4.15;2.45;;;;;;;28.08;45.37;100295.25;4884554;29;20025;-73
2022/05/22 10:13:04;;;;;;;4.53;1.92;;;;;;;28.42;41.79;100299.94;4884333;29;20025;-73
2022/05/22 10:15:53;;;;;;;4.50;2.47;;;;;;;28.34;40.35;100298.94;4883709;29;20029;-72
2022/05/22 10:18:39;;;;;;;3.58;1.92;;;;;;;28.22;39.40;100292.91;4884020;29;20047;-72
2022/05/22 10:21:44;;;;;;;4.95;2.05;;;;;;;28.19;39.85;100298.59;4884196;29;20378;-73
2022/05/22 10:24:51;;;;;;;8.02;2.30;;;;;;;28.33;38.08;100287.31;4884125;29;20033;-73
2022/05/22 10:27:47;;;;;;;4.32;2.33;;;;;;;28.74;38.34;100286.84;4884196;29;20047;-75
2022/05/22 10:30:42;;;;;;;6.38;1.95;;;;;;;28.47;37.53;100280.59;4884691;29;20044;-73
2022/05/22 10:33:52;;;;;;;4.50;2.05;;;;;;;28.81;38.11;100277.09;4883554;29;20124;-72
2022/05/22 10:36:47;;;;;;;3.97;2.20;;;;;;;28.85;37.36;100266.88;4884366;29;20454;-73
2022/05/22 10:39:33;;;;;;;6.10;2.00;;;;;;;28.99;37.12;100255.53;4883991;29;20120;-73
2022/05/22 10:42:47;;;;;;;9.80;2.10;;;;;;;29.01;38.58;100257.09;4883636;29;20061;-73
2022/05/22 10:45:37;;;;;;;4.25;1.90;;;;;;;29.15;35.15;100259.28;4883837;29;20112;-73
2022/05/22 10:48:24;;;;;;;8.48;2.67;;;;;;;29.06;35.19;100257.50;4883280;29;20033;-73
2022/05/22 10:51:13;;;;;;;2.10;1.50;;;;;;;29.34;35.19;100263.63;4883049;29;20032;-72
2022/05/22 10:54:01;;;;;;;13.45;2.40;;;;;;;29.55;31.24;100256.03;4883217;29;20079;-72
2022/05/22 10:56:47;;;;;;;11.70;1.95;;;;;;;29.44;31.26;100258.97;4883344;29;20033;-72
2022/05/22 10:59:32;;;;;;;11.98;1.90;;;;;;;29.24;31.20;100246.66;4883791;29;20056;-73
2022/05/22 11:02:23;;;;;;;3.83;1.45;;;;;;;29.48;31.38;100254.94;4883793;29;20039;-73
2022/05/22 11:05:19;;;;;;;6.30;2.58;;;;;;;29.82;30.44;100247.78;4882822;29;20037;-73
2022/05/22 11:08:05;;;;;;;6.07;1.80;;;;;;;29.81;31.65;100240.72;4882971;29;20366;-72
2022/05/22 11:10:51;;;;;;;5.68;1.60;;;;;;;29.39;31.30;100242.41;4883253;29;20115;-73
2022/05/22 11:13:36;;;;;;;9.18;1.73;;;;;;;29.28;32.44;100226.47;4882467;29;20033;-72
2022/05/22 11:16:30;;;;;;;17.15;2.53;;;;;;;28.99;32.40;100232.13;4881258;29;20144;-72
2022/05/22 11:19:23;;;;;;;5.20;2.00;;;;;;;29.33;31.63;100233.09;4882080;29;20058;-73
2022/05/22 11:22:31;;;;;;;12.45;2.40;;;;;;;29.71;30.83;100240.81;4882434;29;20474;-74
2022/05/22 11:25:45;;;;;;;4.88;1.50;;;;;;;29.59;29.66;100242.09;4882953;29;20328;-74
2022/05/22 11:28:51;;;;;;;5.07;1.40;;;;;;;29.49;28.48;100233.19;4882988;29;20067;-73
2022/05/22 11:31:36;;;;;;;5.38;1.85;;;;;;;29.47;29.12;100242.47;4880209;29;20450;-73
2022/05/22 11:34:46;;;;;;;2.33;1.65;;;;;;;29.66;29.77;100231.50;4882732;29;20069;-72
2022/05/22 11:38:05;;;;;;;5.75;1.27;;;;;;;29.50;29.28;100231.38;4882486;29;20032;-72
2022/05/22 11:41:13;;;;;;;2.63;1.60;;;;;;;29.30;30.38;100228.03;4882757;29;20044;-73
2022/05/22 11:44:25;;;;;;;1.75;1.65;;;;;;;29.62;30.70;100220.16;4882309;29;20043;-72
2022/05/22 11:47:20;;;;;;;3.88;1.60;;;;;;;30.02;31.88;100216.81;4882076;29;20037;-73
2022/05/22 11:50:22;;;;;;;5.43;1.70;;;;;;;29.86;31.20;100228.38;4870221;29;20039;-73
2022/05/22 11:53:17;;;;;;;3.10;1.75;;;;;;;29.94;31.26;100214.09;4869478;29;20040;-74
2022/05/22 11:56:35;;;;;;;7.32;1.70;;;;;;;30.08;30.09;100208.91;4869421;29;20028;-73
2022/05/22 11:59:50;;;;;;;3.10;1.70;;;;;;;29.94;30.44;100201.41;4872573;29;20041;-73
2022/05/22 12:02:56;;;;;;;4.43;1.40;;;;;;;29.81;29.57;100192.91;4868943;29;20043;-73
2022/05/22 12:05:45;;;;;;;6.28;1.95;;;;;;;29.46;30.29;100197.59;4869270;29;20410;-73
2022/05/22 12:08:49;;;;;;;5.40;1.60;;;;;;;29.57;29.65;100200.88;4882790;29;20040;-73
2022/05/22 12:12:10;;;;;;;3.38;1.48;;;;;;;29.81;29.43;100186.69;4882490;29;20029;-74
2022/05/22 12:15:25;;;;;;;6.13;1.80;;;;;;;29.83;30.89;100190.91;4882403;29;20098;-73
2022/05/22 12:18:42;;;;;;;6.40;1.88;;;;;;;29.98;31.03;100186.56;4881159;29;20359;-74
2022/05/22 12:22:05;;;;;;;4.85;1.48;;;;;;;29.92;30.86;100180.97;4882107;29;20033;-75
2022/05/22 12:24:59;;;;;;;5.25;1.85;;;;;;;30.24;30.65;100184.69;4881959;29;20505;-74
2022/05/22 12:27:46;;;;;;;6.60;2.03;;;;;;;30.25;30.73;100178.25;4881501;29;20033;-74
2022/05/22 12:30:39;;;;;;;4.88;1.60;;;;;;;30.22;30.80;100175.88;4881389;29;20036;-73
2022/05/22 12:33:30;;;;;;;6.55;1.90;;;;;;;30.44;31.14;100185.22;4868854;29;20044;-74
2022/05/22 12:36:29;;;;;;;6.03;1.90;;;;;;;29.96;30.78;100180.50;4868297;29;20044;-73
2022/05/22 12:39:17;;;;;;;5.28;1.70;;;;;;;29.77;30.74;100179.91;4881031;29;20033;-73
2022/05/22 12:42:25;;;;;;;3.10;1.70;;;;;;;29.71;30.10;100184.09;4881708;29;20056;-72
2022/05/22 12:45:11;;;;;;;3.20;1.58;;;;;;;29.80;29.75;100175.03;4881141;29;20036;-74
2022/05/22 12:48:15;;;;;;;2.60;1.48;;;;;;;29.86;29.20;100173.53;4882073;29;20438;-74
2022/05/22 12:51:10;;;;;;;2.95;1.27;;;;;;;29.90;28.23;100169.50;4881236;29;20045;-73
2022/05/22 12:54:11;;;;;;;2.13;1.40;;;;;;;29.74;28.02;100169.41;4881795;29;20477;-74
2022/05/22 12:57:13;;;;;;;8.27;2.20;;;;;;;29.65;28.50;100160.44;4881429;29;20029;-73
2022/05/22 13:00:12;;;;;;;2.78;1.50;;;;;;;29.85;28.85;100153.75;4881759;29;20044;-73
2022/05/22 13:03:33;;;;;;;6.75;1.48;;;;;;;30.34;28.35;100155.63;4881337;29;20040;-73
2022/05/22 13:06:22;;;;;;;2.85;1.20;;;;;;;29.92;28.53;100149.41;4881777;29;20045;-73
2022/05/22 13:09:22;;;;;;;1.92;1.20;;;;;;;29.99;28.47;100158.56;4881400;29;20104;-73
2022/05/22 13:12:13;;;;;;;1.65;1.20;;;;;;;30.22;29.30;100156.13;4881010;29;20355;-75
2022/05/22 13:15:15;;;;;;;11.43;1.92;;;;;;;29.92;30.33;100151.25;4867683;29;20120;-74
2022/05/22 13:18:12;;;;;;;13.75;1.85;;;;;;;29.92;30.87;100151.25;4880214;29;20069;-74
2022/05/22 13:21:01;;;;;;;5.68;1.55;;;;;;;30.17;31.37;100153.03;4868107;29;20096;-73
2022/05/22 13:23:47;;;;;;;4.43;1.50;;;;;;;29.78;31.28;100133.81;4867967;29;20152;-74
2022/05/22 13:26:33;;;;;;;8.27;1.88;;;;;;;29.26;31.87;100136.72;4867852;29;20044;-73
2022/05/22 13:29:19;;;;;;;7.53;1.73;;;;;;;29.29;31.71;100144.50;4880060;29;20024;-73
2022/05/22 13:32:24;;;;;;;4.00;1.50;;;;;;;29.65;30.68;100144.22;4880908;29;20359;-74